createdAt,value
2018-02-05T00:01:51.609Z,99.85
2018-02-05T00:04:21.090Z,86.55
2018-02-05T00:06:52.577Z,83.62
2018-02-05T00:09:21.289Z,85.53
2018-02-05T00:11:52.568Z,87.10
2018-02-05T00:14:21.552Z,86.32
2018-02-05T00:16:53.014Z,91.07
2018-02-05T00:19:21.799Z,88.62
2018-02-05T00:24:38.055Z,86.68
2018-02-05T00:27:15.904Z,93.65
2018-02-05T00:29:44.854Z,92.28
2018-02-05T00:32:13.723Z,106.22
2018-02-05T00:34:43.623Z,82.32
2018-02-05T00:37:13.282Z,97.15
2018-02-05T00:39:43.391Z,87.68
2018-02-05T00:42:12.147Z,103.20
2018-02-05T00:44:40.968Z,95.18
2018-02-05T00:47:10.440Z,89.87
2018-02-05T00:49:39.348Z,124.78
2018-02-05T00:52:08.970Z,118.62
2018-02-05T00:54:37.704Z,102.72
2018-02-05T00:57:07.814Z,95.03
2018-02-05T00:59:43.394Z,113.93
2018-02-05T01:02:12.834Z,90.93
2018-02-05T01:04:42.462Z,123.68
2018-02-05T01:07:11.910Z,117.30
2018-02-05T01:09:41.448Z,135.32
2018-02-05T01:12:10.226Z,144.43
2018-02-05T01:14:39.646Z,149.45
2018-02-05T01:17:08.349Z,149.02
2018-02-05T01:19:37.140Z,150.68
2018-02-05T01:22:05.959Z,139.62
2018-02-05T01:24:34.641Z,155.02
2018-02-05T01:27:03.309Z,165.57
2018-02-05T01:29:32.001Z,144.80
2018-02-05T01:32:00.661Z,147.05
2018-02-05T01:34:29.517Z,123.68
2018-02-05T01:36:59.068Z,118.60
2018-02-05T01:39:27.772Z,118.28
2018-02-05T01:41:57.316Z,117.85
2018-02-05T01:44:26.862Z,97.68
2018-02-05T01:46:55.573Z,87.10
2018-02-05T01:49:32.547Z,88.65
2018-02-05T01:52:02.136Z,99.45
2018-02-05T01:54:30.895Z,98.00
2018-02-05T01:57:01.163Z,88.20
2018-02-05T01:59:31.207Z,94.57
2018-02-05T02:02:02.247Z,103.70
2018-02-05T02:04:31.354Z,90.45
2018-02-05T02:07:00.157Z,101.35
2018-02-05T02:09:30.194Z,88.57
2018-02-05T02:11:58.873Z,90.45
2018-02-05T02:14:27.569Z,70.45
2018-02-05T02:16:56.383Z,93.20
2018-02-05T02:19:25.160Z,82.68
2018-02-05T02:21:53.877Z,74.55
2018-02-05T02:24:22.659Z,75.22
2018-02-05T02:26:52.254Z,73.80
2018-02-05T02:29:20.946Z,79.45
2018-02-05T02:31:51.287Z,68.72
2018-02-05T02:34:21.558Z,59.42
2018-02-05T02:36:51.029Z,60.58
2018-02-05T02:39:19.799Z,76.50
2018-02-05T02:41:48.563Z,66.37
2018-02-05T02:44:17.230Z,57.75
2018-02-05T02:46:47.738Z,47.10
2018-02-05T02:49:18.590Z,59.55
2018-02-05T02:51:47.265Z,48.33
2018-02-05T02:54:16.897Z,57.25
2018-02-05T02:56:45.790Z,52.30
2018-02-05T02:59:14.604Z,59.92
2018-02-05T03:01:43.277Z,54.88
2018-02-05T03:04:12.729Z,69.15
2018-02-05T03:06:41.736Z,66.25
2018-02-05T03:09:16.389Z,50.40
2018-02-05T03:11:45.313Z,63.40
2018-02-05T03:14:14.000Z,64.87
2018-02-05T03:16:42.648Z,39.20
2018-02-05T03:19:12.425Z,58.15
2018-02-05T03:21:41.092Z,52.85
2018-02-05T03:24:09.772Z,52.00
2018-02-05T03:26:39.196Z,54.13
2018-02-05T03:29:07.896Z,56.50
2018-02-05T03:31:36.611Z,51.80
2018-02-05T03:34:09.962Z,49.95
2018-02-05T03:36:38.621Z,50.05
2018-02-05T03:39:09.119Z,48.15
2018-02-05T03:41:37.865Z,41.83
2018-02-05T03:44:06.602Z,50.28
2018-02-05T03:46:35.308Z,46.60
2018-02-05T03:49:04.005Z,47.28
2018-02-05T03:51:32.768Z,43.55
2018-02-05T03:54:01.470Z,49.50
2018-02-05T03:56:30.165Z,44.28
2018-02-05T03:58:58.913Z,41.97
2018-02-05T04:01:41.981Z,38.55
2018-02-05T04:04:12.230Z,34.75
2018-02-05T04:06:47.363Z,41.08
2018-02-05T04:09:17.028Z,36.47
2018-02-05T04:11:46.795Z,36.97
2018-02-05T04:14:15.702Z,37.83
2018-02-05T04:16:44.405Z,44.28
2018-02-05T04:19:13.197Z,43.92
2018-02-05T04:21:42.727Z,39.58
2018-02-05T04:24:12.188Z,46.42
2018-02-05T04:26:40.877Z,34.00
2018-02-05T04:29:09.528Z,45.95
2018-02-05T04:31:40.137Z,45.08
2018-02-05T04:34:10.314Z,45.20
2018-02-05T04:36:39.101Z,48.35
2018-02-05T04:39:07.826Z,44.90
2018-02-05T04:41:41.508Z,48.72
2018-02-05T04:44:11.853Z,43.45
2018-02-05T04:46:40.585Z,49.95
2018-02-05T04:49:09.238Z,46.42
2018-02-05T04:51:37.927Z,49.97
2018-02-05T04:54:07.554Z,41.78
2018-02-05T04:56:36.237Z,41.60
2018-02-05T04:59:05.730Z,38.65
2018-02-05T05:01:35.297Z,26.92
2018-02-05T05:04:04.030Z,33.35
2018-02-05T05:06:32.915Z,32.95
2018-02-05T05:09:01.658Z,27.83
2018-02-05T05:11:49.133Z,33.53
2018-02-05T05:14:19.961Z,30.88
2018-02-05T05:16:48.626Z,31.27
2018-02-05T05:19:17.340Z,38.67
2018-02-05T05:21:46.039Z,32.17
2018-02-05T05:27:31.966Z,35.95
2018-02-05T05:30:00.760Z,38.90
2018-02-05T05:32:29.522Z,39.22
2018-02-05T05:34:58.288Z,32.83
2018-02-05T05:37:27.106Z,37.03
2018-02-05T05:39:55.874Z,36.65
2018-02-05T05:42:24.527Z,34.45
2018-02-05T05:44:53.506Z,38.50
2018-02-05T05:47:22.219Z,37.55
2018-02-05T05:49:52.586Z,39.63
2018-02-05T05:52:21.273Z,34.67
2018-02-05T05:54:51.936Z,46.35
2018-02-05T05:57:20.708Z,34.70
2018-02-05T05:59:51.033Z,39.67
2018-02-05T06:02:19.716Z,31.95
2018-02-05T06:04:48.401Z,35.58
2018-02-05T06:07:18.386Z,38.47
2018-02-05T06:09:49.358Z,40.88
2018-02-05T06:12:18.048Z,41.40
2018-02-05T06:14:49.543Z,36.83
2018-02-05T06:17:18.212Z,34.13
2018-02-05T06:19:46.960Z,41.50
2018-02-05T06:22:16.241Z,32.15
2018-02-05T06:24:45.700Z,37.70
2018-02-05T06:27:14.398Z,35.83
2018-02-05T06:29:43.089Z,39.25
2018-02-05T06:32:12.317Z,31.23
2018-02-05T06:34:42.773Z,37.38
2018-02-05T06:37:11.661Z,35.15
2018-02-05T06:39:42.638Z,29.23
2018-02-05T06:42:13.302Z,40.38
2018-02-05T06:44:41.961Z,33.90
2018-02-05T06:47:11.385Z,35.83
2018-02-05T06:49:43.276Z,31.73
2018-02-05T06:52:25.764Z,31.15
2018-02-05T06:55:40.109Z,30.42
2018-02-05T06:58:08.869Z,32.13
2018-02-05T07:00:37.582Z,31.67
2018-02-05T07:03:06.308Z,37.00
2018-02-05T07:05:36.265Z,32.22
2018-02-05T07:08:05.383Z,34.47
2018-02-05T07:10:34.777Z,26.33
2018-02-05T07:13:03.467Z,31.70
2018-02-05T07:15:32.465Z,32.30
2018-02-05T07:18:01.180Z,25.98
2018-02-05T07:20:32.816Z,27.95
2018-02-05T07:23:04.739Z,25.02
2018-02-05T07:25:35.790Z,26.90
2018-02-05T07:28:04.700Z,19.33
2018-02-05T07:30:34.512Z,26.70
2018-02-05T07:33:03.347Z,26.73
2018-02-05T07:35:33.774Z,22.67
2018-02-05T07:38:03.389Z,30.92
2018-02-05T07:40:32.289Z,25.35
2018-02-05T07:43:00.933Z,24.67
2018-02-05T07:45:31.894Z,20.45
2018-02-05T07:48:00.592Z,18.87
2018-02-05T07:50:29.358Z,32.55
2018-02-05T07:52:59.314Z,30.85
2018-02-05T07:55:28.803Z,25.48
2018-02-05T07:57:57.551Z,27.10
2018-02-05T08:00:26.214Z,27.13
2018-02-05T08:02:55.670Z,28.17
2018-02-05T08:05:24.426Z,28.70
2018-02-05T08:07:53.131Z,30.88
2018-02-05T08:10:23.771Z,28.75
2018-02-05T08:12:52.508Z,30.92
2018-02-05T08:15:21.209Z,27.55
2018-02-05T08:17:51.659Z,30.00
2018-02-05T08:20:20.366Z,34.72
2018-02-05T08:22:49.087Z,28.52
2018-02-05T08:25:17.898Z,30.02
2018-02-05T08:27:46.542Z,29.37
2018-02-05T08:30:15.235Z,30.42
2018-02-05T08:32:43.943Z,24.70
2018-02-05T08:35:12.689Z,28.42
2018-02-05T08:37:42.184Z,26.17
2018-02-05T08:40:10.925Z,27.13
2018-02-05T08:42:39.618Z,24.98
2018-02-05T08:45:08.411Z,27.55
2018-02-05T08:47:37.585Z,23.23
2018-02-05T08:50:06.412Z,27.55
2018-02-05T08:52:35.302Z,27.67
2018-02-05T08:55:05.311Z,23.95
2018-02-05T08:57:34.163Z,20.85
2018-02-05T09:00:02.869Z,34.58
2018-02-05T09:02:33.215Z,34.28
2018-02-05T09:05:02.795Z,20.10
2018-02-05T09:07:33.038Z,24.95
2018-02-05T09:10:02.549Z,27.27
2018-02-05T09:12:31.998Z,26.67
2018-02-05T09:15:00.669Z,23.67
2018-02-05T09:17:29.328Z,23.75
2018-02-05T09:19:58.044Z,24.50
2018-02-05T09:22:26.730Z,22.42
2018-02-05T09:25:12.930Z,23.67
2018-02-05T09:27:51.293Z,26.70
2018-02-05T09:30:20.799Z,24.37
2018-02-05T09:32:49.492Z,23.98
2018-02-05T09:35:18.228Z,25.25
2018-02-05T09:37:47.186Z,28.30
2018-02-05T09:40:16.194Z,23.30
2018-02-05T09:42:45.445Z,19.58
2018-02-05T09:45:14.099Z,21.75
2018-02-05T09:47:44.926Z,26.23
2018-02-05T09:50:13.904Z,24.35
2018-02-05T09:52:43.580Z,22.45
2018-02-05T09:55:12.684Z,29.40
2018-02-05T09:57:41.367Z,27.40
2018-02-05T10:00:10.643Z,27.65
2018-02-05T10:02:40.260Z,18.15
2018-02-05T10:05:09.702Z,23.52
2018-02-05T10:07:38.376Z,23.15
2018-02-05T10:10:07.938Z,24.80
2018-02-05T10:12:36.582Z,24.37
2018-02-05T10:15:05.346Z,23.23
2018-02-05T10:17:33.999Z,20.25
2018-02-05T10:20:02.656Z,21.67
2018-02-05T10:22:31.328Z,17.35
2018-02-05T10:25:00.769Z,18.85
2018-02-05T10:27:29.434Z,19.37
2018-02-05T10:29:58.098Z,17.83
2018-02-05T10:32:26.859Z,19.98
2018-02-05T10:34:55.586Z,19.20
2018-02-05T10:37:25.145Z,15.02
2018-02-05T10:39:53.856Z,18.33
2018-02-05T10:42:22.496Z,21.60
2018-02-05T10:44:51.256Z,24.10
2018-02-05T10:47:20.027Z,18.52
2018-02-05T10:49:48.763Z,18.23
2018-02-05T10:52:17.493Z,20.17
2018-02-05T10:54:46.199Z,20.67
2018-02-05T10:57:14.915Z,19.95
2018-02-05T10:59:43.660Z,18.52
2018-02-05T11:02:12.343Z,20.40
2018-02-05T11:04:41.105Z,17.40
2018-02-05T11:07:10.519Z,24.12
2018-02-05T11:09:39.955Z,22.52
2018-02-05T11:12:08.744Z,19.50
2018-02-05T11:14:37.430Z,18.27
2018-02-05T11:17:06.050Z,21.55
2018-02-05T11:19:34.743Z,18.37
2018-02-05T11:22:03.580Z,19.45
2018-02-05T11:24:32.389Z,18.15
2018-02-05T11:27:01.505Z,18.90
2018-02-05T11:29:30.588Z,17.60
2018-02-05T11:31:59.302Z,16.92
2018-02-05T11:34:27.937Z,17.75
2018-02-05T11:36:57.941Z,14.50
2018-02-05T11:39:26.653Z,35.28
2018-02-05T11:41:56.154Z,18.65
2018-02-05T11:44:25.592Z,14.73
2018-02-05T11:46:54.245Z,18.30
2018-02-05T11:49:22.959Z,18.37
2018-02-05T11:51:51.646Z,17.85
2018-02-05T11:54:21.170Z,18.02
2018-02-05T11:56:49.850Z,16.90
2018-02-05T11:59:19.473Z,17.95
2018-02-05T12:01:48.175Z,14.98
2018-02-05T12:04:16.843Z,16.65
2018-02-05T12:06:46.308Z,15.65
2018-02-05T12:09:15.220Z,15.30
2018-02-05T12:11:43.848Z,12.82
2018-02-05T12:14:13.321Z,13.48
2018-02-05T12:16:42.106Z,13.20
2018-02-05T12:19:10.802Z,14.93
2018-02-05T12:21:39.707Z,14.23
2018-02-05T12:24:10.661Z,13.05
2018-02-05T12:26:40.336Z,9.55
2018-02-05T12:29:09.068Z,11.35
2018-02-05T12:31:37.810Z,14.57
2018-02-05T12:34:06.584Z,11.40
2018-02-05T12:36:35.272Z,11.55
2018-02-05T12:39:04.097Z,12.95
2018-02-05T12:41:32.849Z,14.07
2018-02-05T12:44:01.507Z,26.55
2018-02-05T12:46:30.949Z,14.27
2018-02-05T12:48:59.776Z,15.18
2018-02-05T12:51:29.315Z,14.87
2018-02-05T12:53:58.336Z,12.35
2018-02-05T12:56:27.798Z,10.80
2018-02-05T12:58:57.302Z,13.20
2018-02-05T13:01:43.702Z,12.93
2018-02-05T13:04:18.258Z,11.95
2018-02-05T13:06:47.846Z,12.30
2018-02-05T13:09:16.523Z,14.02
2018-02-05T13:11:45.172Z,11.52
2018-02-05T13:14:13.815Z,13.18
2018-02-05T13:16:42.516Z,12.80
2018-02-05T13:19:12.159Z,14.23
2018-02-05T13:21:40.827Z,15.52
2018-02-05T13:24:10.283Z,15.10
2018-02-05T13:26:39.001Z,17.45
2018-02-05T13:29:07.723Z,13.80
2018-02-05T13:31:37.142Z,15.80
2018-02-05T13:34:05.814Z,12.50
2018-02-05T13:36:34.559Z,14.90
2018-02-05T13:39:03.322Z,11.57
2018-02-05T13:41:32.189Z,13.82
2018-02-05T13:44:01.630Z,13.60
2018-02-05T13:46:30.304Z,10.57
2018-02-05T13:48:59.013Z,12.68
2018-02-05T13:51:28.731Z,14.07
2018-02-05T13:53:57.645Z,11.75
2018-02-05T13:56:26.290Z,10.40
2018-02-05T13:58:55.022Z,15.35
2018-02-05T14:01:24.484Z,15.40
2018-02-05T14:03:53.986Z,17.08
2018-02-05T14:06:22.728Z,14.18
2018-02-05T14:08:52.763Z,17.15
2018-02-05T14:11:22.452Z,14.57
2018-02-05T14:13:51.129Z,18.73
2018-02-05T14:16:19.825Z,16.17
2018-02-05T14:18:54.036Z,12.30
2018-02-05T14:21:25.080Z,12.20
2018-02-05T14:23:55.395Z,14.15
2018-02-05T14:26:24.902Z,16.12
2018-02-05T14:28:53.589Z,14.05
2018-02-05T14:31:22.678Z,17.00
2018-02-05T14:33:51.406Z,17.00
2018-02-05T14:36:20.120Z,19.02
2018-02-05T14:38:49.362Z,17.27
2018-02-05T14:41:18.856Z,22.40
2018-02-05T14:43:48.343Z,17.73
2018-02-05T14:46:19.835Z,15.48
2018-02-05T14:48:48.819Z,17.17
2018-02-05T14:51:17.452Z,13.98
2018-02-05T14:53:47.138Z,15.52
2018-02-05T14:56:16.682Z,20.77
2018-02-05T14:58:45.557Z,17.37
2018-02-05T15:01:14.268Z,21.80
2018-02-05T15:03:42.914Z,20.48
2018-02-05T15:06:11.566Z,14.55
2018-02-05T15:08:40.298Z,18.67
2018-02-05T15:11:08.953Z,14.90
2018-02-05T15:13:38.582Z,24.73
2018-02-05T15:16:07.247Z,14.15
2018-02-05T15:18:35.983Z,14.27
2018-02-05T15:21:04.939Z,16.92
2018-02-05T15:23:33.816Z,14.15
2018-02-05T15:26:03.806Z,13.70
2018-02-05T15:28:32.598Z,16.23
2018-02-05T15:31:01.940Z,14.27
2018-02-05T15:33:30.683Z,16.33
2018-02-05T15:35:59.611Z,14.43
2018-02-05T15:38:35.697Z,16.90
2018-02-05T15:41:05.669Z,17.95
2018-02-05T15:43:34.367Z,22.08
2018-02-05T15:46:03.095Z,18.90
2018-02-05T15:48:32.594Z,19.65
2018-02-05T15:51:01.649Z,20.15
2018-02-05T15:53:30.386Z,18.08
2018-02-05T15:56:00.039Z,18.77
2018-02-05T15:58:28.739Z,15.30
2018-02-05T16:00:58.164Z,19.90
2018-02-05T16:03:26.853Z,20.83
2018-02-05T16:05:55.571Z,22.90
2018-02-05T16:08:24.323Z,21.00
2018-02-05T16:10:53.801Z,21.37
2018-02-05T16:13:22.817Z,24.23
2018-02-05T16:15:51.824Z,21.08
2018-02-05T16:18:20.887Z,26.12
2018-02-05T16:20:49.557Z,21.15
2018-02-05T16:23:18.225Z,21.35
2018-02-05T16:25:46.951Z,25.08
2018-02-05T16:28:19.195Z,28.05
2018-02-05T16:30:48.560Z,22.92
2018-02-05T16:33:18.134Z,22.08
2018-02-05T16:35:55.543Z,22.08
2018-02-05T16:38:24.724Z,24.15
2018-02-05T16:40:56.022Z,22.95
2018-02-05T16:43:25.150Z,28.30
2018-02-05T16:45:54.031Z,33.22
2018-02-05T16:48:22.801Z,25.42
2018-02-05T16:50:52.237Z,32.67
2018-02-05T16:53:20.954Z,32.83
2018-02-05T16:55:49.679Z,24.27
2018-02-05T16:58:23.817Z,33.03
2018-02-05T17:00:57.048Z,28.87
2018-02-05T17:03:27.981Z,27.33
2018-02-05T17:05:57.208Z,28.80
2018-02-05T17:08:25.946Z,28.83
2018-02-05T17:10:54.707Z,29.75
2018-02-05T17:13:23.796Z,34.03
2018-02-05T17:15:53.903Z,33.45
2018-02-05T17:18:23.227Z,31.87
2018-02-05T17:20:52.895Z,32.55
2018-02-05T17:23:22.954Z,29.33
2018-02-05T17:25:55.640Z,32.22
2018-02-05T17:28:25.518Z,30.37
2018-02-05T17:30:54.251Z,31.98
2018-02-05T17:33:24.187Z,22.23
2018-02-05T17:35:55.997Z,19.25
2018-02-05T17:38:24.679Z,22.37
2018-02-05T17:40:53.881Z,32.05
2018-02-05T17:43:22.646Z,27.55
2018-02-05T17:45:52.218Z,25.10
2018-02-05T17:48:22.435Z,26.73
2018-02-05T17:50:51.363Z,27.35
2018-02-05T17:53:20.064Z,29.25
2018-02-05T17:55:49.510Z,29.60
2018-02-05T17:58:18.278Z,33.15
2018-02-05T18:00:47.231Z,27.27
2018-02-05T18:03:16.774Z,31.98
2018-02-05T18:05:45.589Z,33.42
2018-02-05T18:08:16.617Z,35.72
2018-02-05T18:10:45.477Z,42.83
2018-02-05T18:13:14.410Z,33.08
2018-02-05T18:15:46.933Z,34.67
2018-02-05T18:18:15.644Z,33.78
2018-02-05T18:20:44.903Z,34.13
2018-02-05T18:23:15.373Z,33.40
2018-02-05T18:25:45.017Z,32.42
2018-02-05T18:28:14.507Z,26.52
2018-02-05T18:30:43.190Z,38.15
2018-02-05T18:33:14.920Z,36.35
2018-02-05T18:35:51.481Z,25.73
2018-02-05T18:38:20.364Z,27.08
2018-02-05T18:40:49.459Z,35.55
2018-02-05T18:43:18.386Z,32.45
2018-02-05T18:45:47.451Z,27.90
2018-02-05T18:48:16.502Z,38.70
2018-02-05T18:50:45.551Z,30.70
2018-02-05T18:53:15.074Z,32.33
2018-02-05T18:55:43.744Z,33.13
2018-02-05T18:58:14.384Z,26.05
2018-02-05T19:00:53.059Z,34.50
2018-02-05T19:03:23.342Z,30.83
2018-02-05T19:05:52.857Z,29.12
2018-02-05T19:08:21.578Z,31.12
2018-02-05T19:10:50.380Z,31.60
2018-02-05T19:13:19.132Z,28.90
2018-02-05T19:15:48.601Z,29.20
2018-02-05T19:18:18.182Z,30.85
2018-02-05T19:20:51.382Z,29.92
2018-02-05T19:23:21.828Z,22.52
2018-02-05T19:25:52.046Z,31.12
2018-02-05T19:28:22.598Z,32.13
2018-02-05T19:30:51.383Z,31.37
2018-02-05T19:33:20.881Z,27.50
2018-02-05T19:35:49.589Z,29.55
2018-02-05T19:38:19.065Z,31.20
2018-02-05T19:40:48.044Z,29.60
2018-02-05T19:43:17.581Z,30.30
2018-02-05T19:45:48.405Z,24.63
2018-02-05T19:48:26.843Z,25.80
2018-02-05T19:50:55.608Z,21.12
2018-02-05T19:53:24.391Z,28.23
2018-02-05T19:55:53.332Z,33.22
2018-02-05T19:58:22.197Z,29.58
2018-02-05T20:00:54.530Z,30.42
2018-02-05T20:03:24.020Z,35.30
2018-02-05T20:05:53.293Z,28.65
2018-02-05T20:08:23.970Z,32.22
2018-02-05T20:10:52.934Z,27.83
2018-02-05T20:13:21.654Z,36.97
2018-02-05T20:15:50.945Z,35.42
2018-02-05T20:18:19.850Z,33.17
2018-02-05T20:20:48.902Z,32.30
2018-02-05T20:23:17.924Z,29.60
2018-02-05T20:25:46.963Z,34.53
2018-02-05T20:28:16.717Z,33.65
2018-02-05T20:30:45.732Z,35.10
2018-02-05T20:33:15.087Z,32.08
2018-02-05T20:35:45.408Z,34.17
2018-02-05T20:38:15.123Z,28.67
2018-02-05T20:40:44.091Z,31.08
2018-02-05T20:43:13.222Z,35.95
2018-02-05T20:45:43.763Z,33.55
2018-02-05T20:48:12.819Z,35.03
2018-02-05T20:50:41.813Z,31.83
2018-02-05T20:53:10.998Z,27.87
2018-02-05T20:55:40.455Z,32.67
2018-02-05T20:58:09.994Z,37.03
2018-02-05T21:00:39.582Z,35.90
2018-02-05T21:03:08.356Z,37.22
2018-02-05T21:05:37.875Z,37.47
2018-02-05T21:08:07.684Z,36.65
2018-02-05T21:10:36.442Z,33.58
2018-02-05T21:13:05.202Z,29.48
2018-02-05T21:15:33.979Z,38.35
2018-02-05T21:18:03.156Z,36.05
2018-02-05T21:20:32.496Z,32.28
2018-02-05T21:23:01.630Z,36.10
2018-02-05T21:25:31.547Z,27.55
2018-02-05T21:28:01.826Z,29.25
2018-02-05T21:30:31.969Z,32.60
2018-02-05T21:33:04.401Z,37.15
2018-02-05T21:35:33.331Z,28.05
2018-02-05T21:38:02.090Z,35.67
2018-02-05T21:40:32.131Z,40.10
2018-02-05T21:43:01.294Z,36.72
2018-02-05T21:45:31.610Z,31.35
2018-02-05T21:48:01.449Z,39.40
2018-02-05T21:50:30.167Z,42.28
2018-02-05T21:52:59.766Z,38.92
2018-02-05T21:55:29.430Z,38.05
2018-02-05T21:57:58.488Z,31.85
2018-02-05T22:00:27.772Z,43.33
2018-02-05T22:02:56.534Z,39.40
2018-02-05T22:05:25.648Z,39.97
2018-02-05T22:07:54.554Z,41.00
2018-02-05T22:10:24.273Z,38.42
2018-02-05T22:12:53.273Z,46.45
2018-02-05T22:15:22.769Z,38.70
2018-02-05T22:20:49.443Z,36.67
2018-02-05T22:23:18.520Z,40.22
2018-02-05T22:25:47.547Z,34.45
2018-02-05T22:28:16.319Z,47.13
2018-02-05T22:30:46.266Z,41.35
2018-02-05T22:33:15.803Z,35.50
2018-02-05T22:35:44.481Z,42.13
2018-02-05T22:38:13.589Z,41.70
2018-02-05T22:40:42.899Z,47.10
2018-02-05T22:43:11.644Z,39.92
2018-02-05T22:45:40.969Z,42.40
2018-02-05T22:48:09.908Z,39.88
2018-02-05T22:50:38.660Z,37.83
2018-02-05T22:53:07.341Z,41.30
2018-02-05T22:55:35.993Z,36.88
2018-02-05T22:58:05.580Z,45.42
2018-02-05T23:00:34.285Z,42.33
2018-02-05T23:03:04.737Z,42.60
2018-02-05T23:05:33.470Z,42.15
2018-02-05T23:08:03.472Z,29.58
2018-02-05T23:10:33.310Z,36.30
2018-02-05T23:13:02.242Z,47.50
2018-02-05T23:15:31.470Z,44.75
2018-02-05T23:18:00.539Z,48.58
2018-02-05T23:20:31.625Z,42.20
2018-02-05T23:23:00.737Z,42.65
2018-02-05T23:25:29.461Z,45.30
2018-02-05T23:27:58.156Z,40.78
2018-02-05T23:30:26.850Z,43.50
2018-02-05T23:32:55.579Z,42.08
2018-02-05T23:35:24.517Z,37.63
2018-02-05T23:37:59.796Z,44.42
2018-02-05T23:40:29.921Z,45.28
2018-02-05T23:42:58.770Z,45.15
2018-02-05T23:45:29.641Z,46.60
2018-02-05T23:47:58.334Z,52.10
2018-02-05T23:50:27.001Z,46.35
2018-02-05T23:52:55.847Z,44.85
2018-02-05T23:55:25.306Z,49.13
2018-02-05T23:57:53.969Z,41.65
